createdAt,value
2019-01-02T00:02:50.032Z,77.40
2019-01-02T00:06:54.559Z,77.40
2019-01-02T00:10:59.070Z,77.40
2019-01-02T00:15:03.910Z,77.20
2019-01-02T00:19:08.439Z,77.30
2019-01-02T00:23:13.385Z,78.10
2019-01-02T00:27:17.914Z,78.80
2019-01-02T00:31:22.614Z,79.60
2019-01-02T00:35:27.156Z,80.00
2019-01-02T00:39:32.109Z,80.40
2019-01-02T00:43:36.635Z,81.90
2019-01-02T00:47:41.574Z,81.40
2019-01-02T00:51:46.076Z,80.60
2019-01-02T00:55:50.928Z,80.20
2019-01-02T00:59:55.494Z,80.10
2019-01-02T01:04:00.328Z,80.40
2019-01-02T01:08:04.859Z,80.10
2019-01-02T01:12:09.384Z,80.00
2019-01-02T01:16:13.991Z,80.20
2019-01-02T01:20:20.263Z,80.20
2019-01-02T01:24:24.807Z,79.90
2019-01-02T01:28:29.756Z,80.40
2019-01-02T01:32:34.242Z,80.60
2019-01-02T01:36:38.786Z,81.20
2019-01-02T01:40:43.497Z,81.20
2019-01-02T01:44:48.004Z,80.90
2019-01-02T01:48:53.025Z,80.90
2019-01-02T01:52:57.655Z,80.10
2019-01-02T01:57:02.237Z,81.00
2019-01-02T02:01:07.097Z,80.80
2019-01-02T02:05:11.636Z,80.80
2019-01-02T02:09:16.180Z,80.30
2019-01-02T02:13:21.220Z,80.10
2019-01-02T02:17:25.752Z,80.80
2019-01-02T02:21:30.328Z,80.50
2019-01-02T02:25:35.371Z,80.20
2019-01-02T02:29:39.899Z,80.20
2019-01-02T02:33:44.394Z,80.10
2019-01-02T02:37:49.127Z,80.30
2019-01-02T02:41:53.671Z,80.80
2019-01-02T02:45:58.518Z,80.40
2019-01-02T02:50:03.437Z,80.40
2019-01-02T02:54:07.994Z,80.10
2019-01-02T02:58:12.943Z,79.90
2019-01-02T03:02:17.910Z,79.80
2019-01-02T03:06:24.091Z,79.50
2019-01-02T03:10:28.940Z,79.60
2019-01-02T03:14:33.791Z,79.70
2019-01-02T03:18:38.335Z,79.40
2019-01-02T03:22:42.989Z,79.40
2019-01-02T03:26:47.822Z,79.40
2019-01-02T03:30:52.403Z,79.10
2019-01-02T03:34:57.353Z,79.60
2019-01-02T03:39:01.887Z,79.20
2019-01-02T03:43:06.408Z,79.30
2019-01-02T03:47:11.018Z,79.30
2019-01-02T03:51:15.543Z,79.20
2019-01-02T03:55:20.128Z,78.90
2019-01-02T03:59:24.668Z,78.40
2019-01-02T04:03:29.338Z,78.40
2019-01-02T04:07:33.878Z,78.20
2019-01-02T04:11:38.433Z,78.40
2019-01-02T04:15:42.956Z,78.40
2019-01-02T04:19:47.507Z,78.00
2019-01-02T04:23:52.188Z,78.00
2019-01-02T04:27:56.755Z,78.40
2019-01-02T04:32:01.301Z,78.50
2019-01-02T04:36:05.819Z,78.50
2019-01-02T04:40:12.216Z,78.50
2019-01-02T04:44:16.755Z,78.30
2019-01-02T04:48:21.339Z,78.60
2019-01-02T04:52:25.888Z,78.20
2019-01-02T04:56:30.440Z,78.30
2019-01-02T05:00:35.003Z,78.30
2019-01-02T05:04:39.548Z,78.50
2019-01-02T05:08:44.094Z,78.80
2019-01-02T05:12:48.667Z,78.40
2019-01-02T05:16:53.216Z,78.30
2019-01-02T05:20:57.755Z,78.60
2019-01-02T05:25:02.383Z,78.70
2019-01-02T05:29:07.059Z,78.90
2019-01-02T05:33:11.624Z,79.20
2019-01-02T05:37:16.170Z,79.30
2019-01-02T05:41:20.672Z,79.70
2019-01-02T05:45:25.218Z,78.80
2019-01-02T05:49:29.765Z,79.00
2019-01-02T05:53:34.306Z,79.10
2019-01-02T05:57:38.861Z,78.70
2019-01-02T06:01:43.350Z,78.70
2019-01-02T06:05:47.922Z,79.00
2019-01-02T06:09:52.462Z,78.70
2019-01-02T06:13:57.000Z,78.70
2019-01-02T06:18:01.544Z,78.20
2019-01-02T06:22:06.116Z,78.30
2019-01-02T06:26:10.675Z,78.10
2019-01-02T06:30:15.261Z,77.80
2019-01-02T06:34:19.819Z,78.10
2019-01-02T06:38:24.371Z,77.70
2019-01-02T06:42:28.891Z,77.70
2019-01-02T06:46:33.457Z,77.50
2019-01-02T06:50:38.011Z,77.50
2019-01-02T06:54:42.575Z,77.40
2019-01-02T06:58:47.136Z,77.20
2019-01-02T07:02:51.658Z,77.20
2019-01-02T07:06:56.208Z,77.20
2019-01-02T07:11:00.777Z,77.40
2019-01-02T07:15:05.859Z,77.20
2019-01-02T07:19:10.480Z,76.90
2019-01-02T07:23:15.037Z,76.90
2019-01-02T07:27:19.585Z,76.50
2019-01-02T07:31:24.159Z,77.10
2019-01-02T07:36:12.580Z,77.60
2019-01-02T07:40:54.057Z,76.80
2019-01-02T07:45:42.218Z,77.30
2019-01-02T07:50:42.944Z,75.90
2019-01-02T07:55:26.575Z,76.60
2019-01-02T08:00:04.719Z,76.50
2019-01-02T08:04:56.276Z,76.60
2019-01-02T08:09:31.145Z,76.60
2019-01-02T08:14:12.871Z,76.10
2019-01-02T08:19:22.775Z,75.80
2019-01-02T08:24:00.095Z,76.30
2019-01-02T08:28:40.252Z,75.90
2019-01-02T08:33:27.040Z,75.90
2019-01-02T08:38:16.976Z,75.70
2019-01-02T08:43:02.912Z,75.30
2019-01-02T08:47:47.958Z,75.30
2019-01-02T08:52:51.683Z,75.10
2019-01-02T08:57:36.343Z,75.00
2019-01-02T09:02:16.601Z,75.30
2019-01-02T09:07:21.623Z,74.70
2019-01-02T09:11:38.970Z,73.30
2019-01-02T09:16:19.752Z,73.80
2019-01-02T09:21:19.029Z,73.90
2019-01-02T09:26:08.091Z,73.40
2019-01-02T09:30:52.378Z,72.20
2019-01-02T09:40:16.522Z,73.30
2019-01-02T09:45:02.891Z,72.00
2019-01-02T09:49:44.483Z,71.80
2019-01-02T09:54:26.019Z,70.80
2019-01-02T10:03:52.676Z,72.00
2019-01-02T10:08:11.144Z,71.20
2019-01-02T10:12:32.257Z,71.00
2019-01-02T10:17:26.468Z,70.50
2019-01-02T10:22:33.204Z,70.50
2019-01-02T10:27:04.000Z,69.10
2019-01-02T10:31:42.834Z,69.70
2019-01-02T10:36:31.386Z,69.20
2019-01-02T10:41:21.589Z,68.70
2019-01-02T10:46:03.719Z,67.40
2019-01-02T10:50:22.301Z,68.40
2019-01-02T10:55:29.442Z,68.50
2019-01-02T11:00:10.311Z,68.80
2019-01-02T11:04:51.574Z,67.90
2019-01-02T11:09:25.079Z,68.50
2019-01-02T11:14:10.775Z,68.20
2019-01-02T11:19:02.147Z,68.20
2019-01-02T11:24:12.011Z,68.10
2019-01-02T11:29:09.332Z,68.30
2019-01-02T11:38:09.046Z,66.50
2019-01-02T11:42:37.279Z,65.90
2019-01-02T11:46:41.874Z,67.00
2019-01-02T11:50:46.426Z,66.70
2019-01-02T11:54:50.951Z,67.40
2019-01-02T11:58:55.507Z,66.60
2019-01-02T12:03:00.100Z,66.50
2019-01-02T12:07:04.617Z,66.30
2019-01-02T12:11:09.267Z,63.80
2019-01-02T12:15:13.808Z,64.60
2019-01-02T12:19:18.354Z,64.70
2019-01-02T12:23:22.953Z,63.40
2019-01-02T12:27:27.492Z,63.40
2019-01-02T12:31:32.036Z,64.40
2019-01-02T12:35:36.644Z,63.20
2019-01-02T12:39:41.175Z,64.70
2019-01-02T12:43:45.767Z,64.10
2019-01-02T12:47:50.312Z,63.90
2019-01-02T12:51:54.879Z,64.40
2019-01-02T12:55:59.395Z,63.50
2019-01-02T13:00:04.465Z,63.90
2019-01-02T13:04:31.334Z,63.60
2019-01-02T13:09:10.304Z,63.90
2019-01-02T13:13:57.917Z,63.30
2019-01-02T13:18:41.609Z,62.90
2019-01-02T13:23:26.402Z,64.30
2019-01-02T13:28:11.166Z,64.90
2019-01-02T13:33:12.503Z,64.40
2019-01-02T13:37:52.270Z,64.40
2019-01-02T13:49:40.431Z,63.50
2019-01-02T13:53:44.962Z,61.30
2019-01-02T13:57:49.499Z,62.30
2019-01-02T14:01:54.057Z,60.70
2019-01-02T14:05:58.635Z,60.00
2019-01-02T14:10:03.215Z,60.50
2019-01-02T14:14:07.729Z,61.50
2019-01-02T14:18:12.289Z,61.30
2019-01-02T14:22:16.899Z,61.10
2019-01-02T14:26:21.440Z,60.90
2019-01-02T14:30:25.934Z,59.90
2019-01-02T14:34:30.516Z,61.80
2019-01-02T14:38:35.311Z,60.30
2019-01-02T14:45:26.326Z,60.20
2019-01-02T14:49:30.850Z,60.80
2019-01-02T14:53:35.408Z,61.40
2019-01-02T14:57:40.076Z,61.80
2019-01-02T15:01:44.665Z,61.90
2019-01-02T15:05:49.211Z,62.80
2019-01-02T15:09:53.759Z,63.00
2019-01-02T15:30:01.242Z,62.30
2019-01-02T15:41:57.080Z,61.80
2019-01-02T16:01:00.653Z,62.30
2019-01-02T16:05:05.476Z,63.00
2019-01-02T16:09:10.023Z,63.30
2019-01-02T16:13:14.518Z,63.50
2019-01-02T16:17:19.108Z,63.80
2019-01-02T16:21:23.666Z,63.80
2019-01-02T18:20:05.443Z,66.70
2019-01-02T18:39:16.173Z,66.30
2019-01-02T18:44:39.990Z,67.20
2019-01-02T18:50:12.378Z,67.80
2019-01-02T18:54:16.930Z,67.00
2019-01-02T19:08:44.510Z,66.30
2019-01-02T19:12:49.066Z,66.90
2019-01-02T19:29:58.132Z,66.90
2019-01-02T19:34:02.663Z,68.20
2019-01-02T19:39:32.790Z,66.60
2019-01-02T19:43:37.356Z,67.30
2019-01-02T19:47:41.903Z,67.30
2019-01-02T19:51:46.407Z,68.10
2019-01-02T19:55:50.957Z,67.40
2019-01-02T19:59:55.495Z,67.60
2019-01-02T20:04:00.035Z,67.30
2019-01-02T20:11:40.665Z,66.80
2019-01-02T20:15:45.185Z,67.50
2019-01-02T20:19:49.727Z,67.50
2019-01-02T20:23:54.287Z,67.90
2019-01-02T20:27:58.799Z,67.80
2019-01-02T20:32:04.334Z,68.20
2019-01-02T20:36:09.027Z,68.00
2019-01-02T20:40:13.552Z,68.10
2019-01-02T20:44:18.075Z,68.20
2019-01-02T20:48:22.577Z,68.40
2019-01-02T20:52:27.112Z,68.50
2019-01-02T20:56:31.652Z,68.70
2019-01-02T21:02:55.371Z,68.20
2019-01-02T21:09:51.744Z,68.40
2019-01-02T21:13:56.312Z,69.00
2019-01-02T21:18:00.839Z,68.80
2019-01-02T21:31:14.887Z,68.30
2019-01-02T21:35:19.423Z,69.00
2019-01-02T21:41:51.957Z,68.60
2019-01-02T21:54:19.771Z,68.80
2019-01-02T21:58:24.299Z,69.50
2019-01-02T22:02:28.839Z,69.50
2019-01-02T22:06:33.364Z,69.60
2019-01-02T22:10:37.884Z,69.60
2019-01-02T22:14:42.413Z,69.60
2019-01-02T22:18:46.960Z,69.70
2019-01-02T22:22:51.530Z,69.70
2019-01-02T22:26:56.067Z,69.70
2019-01-02T22:31:00.607Z,69.60
2019-01-02T22:35:05.287Z,69.80
2019-01-02T22:41:53.833Z,69.60
2019-01-02T22:45:58.367Z,70.30
2019-01-02T22:50:02.894Z,70.30
2019-01-02T22:54:07.438Z,70.20
2019-01-02T22:58:11.970Z,70.40
2019-01-02T23:02:22.769Z,70.10
2019-01-02T23:06:43.151Z,70.30
2019-01-02T23:11:05.418Z,70.60
2019-01-02T23:15:36.568Z,70.60
2019-01-02T23:20:06.628Z,70.80
2019-01-02T23:24:42.506Z,70.80
2019-01-02T23:31:34.881Z,70.30
2019-01-02T23:35:56.993Z,71.10
2019-01-02T23:40:19.144Z,71.10
2019-01-02T23:44:48.990Z,70.50
2019-01-02T23:49:11.314Z,71.10
2019-01-02T23:53:25.099Z,71.10
2019-01-02T23:57:51.367Z,71.30
